sensor_id;sensor_type;location;lat;lon;timestamp;P1;durP1;ratioP1;P2;durP2;ratioP2
13588;SDS011;6865;52.552;13.434;2024-01-30T00:02:23;8.53;;;5.43;;
13588;SDS011;6865;52.552;13.434;2024-01-30T00:04:49;9.67;;;6.30;;
13588;SDS011;6865;52.552;13.434;2024-01-30T00:07:16;9.47;;;5.80;;
13588;SDS011;6865;52.552;13.434;2024-01-30T00:09:46;10.20;;;5.60;;
13588;SDS011;6865;52.552;13.434;2024-01-30T00:12:14;11.17;;;5.90;;
13588;SDS011;6865;52.552;13.434;2024-01-30T00:14:43;10.00;;;5.97;;
13588;SDS011;6865;52.552;13.434;2024-01-30T00:17:10;11.93;;;6.00;;
13588;SDS011;6865;52.552;13.434;2024-01-30T00:19:37;11.00;;;6.37;;
13588;SDS011;6865;52.552;13.434;2024-01-30T00:22:04;7.97;;;5.57;;
13588;SDS011;6865;52.552;13.434;2024-01-30T00:24:30;9.03;;;5.83;;
13588;SDS011;6865;52.552;13.434;2024-01-30T00:26:57;10.23;;;6.13;;
13588;SDS011;6865;52.552;13.434;2024-01-30T00:29:24;12.33;;;6.10;;
13588;SDS011;6865;52.552;13.434;2024-01-30T00:31:55;9.57;;;5.87;;
13588;SDS011;6865;52.552;13.434;2024-01-30T00:34:22;11.80;;;6.20;;
13588;SDS011;6865;52.552;13.434;2024-01-30T00:36:49;10.20;;;6.13;;
13588;SDS011;6865;52.552;13.434;2024-01-30T00:39:16;9.20;;;6.10;;
13588;SDS011;6865;52.552;13.434;2024-01-30T00:41:42;9.97;;;6.40;;
13588;SDS011;6865;52.552;13.434;2024-01-30T00:44:09;9.57;;;5.97;;
13588;SDS011;6865;52.552;13.434;2024-01-30T00:46:36;11.00;;;6.13;;
13588;SDS011;6865;52.552;13.434;2024-01-30T00:49:02;11.40;;;6.40;;
13588;SDS011;6865;52.552;13.434;2024-01-30T00:51:29;8.83;;;5.63;;
13588;SDS011;6865;52.552;13.434;2024-01-30T00:53:56;11.43;;;5.83;;
13588;SDS011;6865;52.552;13.434;2024-01-30T00:56:23;12.03;;;5.90;;
13588;SDS011;6865;52.552;13.434;2024-01-30T00:58:50;7.83;;;5.20;;
13588;SDS011;6865;52.552;13.434;2024-01-30T01:01:17;8.33;;;5.23;;
13588;SDS011;6865;52.552;13.434;2024-01-30T01:03:43;11.77;;;5.77;;
13588;SDS011;6865;52.552;13.434;2024-01-30T01:06:10;9.87;;;5.50;;
13588;SDS011;6865;52.552;13.434;2024-01-30T01:08:37;10.63;;;5.90;;
13588;SDS011;6865;52.552;13.434;2024-01-30T01:11:04;8.10;;;5.73;;
13588;SDS011;6865;52.552;13.434;2024-01-30T01:13:30;10.97;;;5.40;;
13588;SDS011;6865;52.552;13.434;2024-01-30T01:15:57;7.70;;;5.03;;
13588;SDS011;6865;52.552;13.434;2024-01-30T01:18:24;8.23;;;5.50;;
13588;SDS011;6865;52.552;13.434;2024-01-30T01:20:50;8.93;;;5.70;;
13588;SDS011;6865;52.552;13.434;2024-01-30T01:23:17;8.63;;;5.47;;
13588;SDS011;6865;52.552;13.434;2024-01-30T01:25:44;7.90;;;5.27;;
13588;SDS011;6865;52.552;13.434;2024-01-30T01:28:10;9.10;;;5.50;;
13588;SDS011;6865;52.552;13.434;2024-01-30T01:30:37;9.07;;;5.47;;
13588;SDS011;6865;52.552;13.434;2024-01-30T01:33:04;9.50;;;5.90;;
13588;SDS011;6865;52.552;13.434;2024-01-30T01:35:33;9.27;;;5.47;;
13588;SDS011;6865;52.552;13.434;2024-01-30T01:38:00;9.07;;;5.73;;
13588;SDS011;6865;52.552;13.434;2024-01-30T01:40:27;8.70;;;5.40;;
13588;SDS011;6865;52.552;13.434;2024-01-30T01:42:56;10.37;;;5.73;;
13588;SDS011;6865;52.552;13.434;2024-01-30T01:45:23;9.67;;;5.23;;
13588;SDS011;6865;52.552;13.434;2024-01-30T01:47:52;9.93;;;5.77;;
13588;SDS011;6865;52.552;13.434;2024-01-30T01:50:20;9.67;;;5.57;;
13588;SDS011;6865;52.552;13.434;2024-01-30T01:52:48;9.33;;;5.33;;
13588;SDS011;6865;52.552;13.434;2024-01-30T01:55:16;8.73;;;5.30;;
13588;SDS011;6865;52.552;13.434;2024-01-30T01:57:47;8.90;;;6.00;;
13588;SDS011;6865;52.552;13.434;2024-01-30T02:00:14;6.97;;;4.90;;
13588;SDS011;6865;52.552;13.434;2024-01-30T02:02:42;9.43;;;5.50;;
13588;SDS011;6865;52.552;13.434;2024-01-30T02:05:09;7.73;;;5.03;;
13588;SDS011;6865;52.552;13.434;2024-01-30T02:07:36;8.67;;;5.30;;
13588;SDS011;6865;52.552;13.434;2024-01-30T02:10:04;9.57;;;5.43;;
13588;SDS011;6865;52.552;13.434;2024-01-30T02:12:31;8.73;;;5.47;;
13588;SDS011;6865;52.552;13.434;2024-01-30T02:14:57;7.90;;;5.27;;
13588;SDS011;6865;52.552;13.434;2024-01-30T02:17:24;10.43;;;5.73;;
13588;SDS011;6865;52.552;13.434;2024-01-30T02:19:51;8.63;;;5.63;;
13588;SDS011;6865;52.552;13.434;2024-01-30T02:22:19;9.00;;;5.43;;
13588;SDS011;6865;52.552;13.434;2024-01-30T02:24:47;8.50;;;5.60;;
13588;SDS011;6865;52.552;13.434;2024-01-30T02:27:14;8.97;;;5.33;;
13588;SDS011;6865;52.552;13.434;2024-01-30T02:29:40;8.60;;;5.47;;
13588;SDS011;6865;52.552;13.434;2024-01-30T02:32:07;10.57;;;5.50;;
13588;SDS011;6865;52.552;13.434;2024-01-30T02:34:34;9.50;;;5.30;;
13588;SDS011;6865;52.552;13.434;2024-01-30T02:37:01;8.97;;;5.40;;
13588;SDS011;6865;52.552;13.434;2024-01-30T02:39:27;9.53;;;5.67;;
13588;SDS011;6865;52.552;13.434;2024-01-30T02:41:54;8.10;;;5.37;;
13588;SDS011;6865;52.552;13.434;2024-01-30T02:44:21;8.30;;;5.27;;
13588;SDS011;6865;52.552;13.434;2024-01-30T02:46:47;11.37;;;5.80;;
13588;SDS011;6865;52.552;13.434;2024-01-30T02:49:14;9.20;;;5.67;;
13588;SDS011;6865;52.552;13.434;2024-01-30T02:51:41;8.57;;;5.47;;
13588;SDS011;6865;52.552;13.434;2024-01-30T02:54:07;8.73;;;5.33;;
13588;SDS011;6865;52.552;13.434;2024-01-30T02:56:34;12.47;;;6.20;;
13588;SDS011;6865;52.552;13.434;2024-01-30T02:59:01;8.70;;;5.77;;
13588;SDS011;6865;52.552;13.434;2024-01-30T03:01:27;12.10;;;5.70;;
13588;SDS011;6865;52.552;13.434;2024-01-30T03:03:54;8.73;;;5.37;;
13588;SDS011;6865;52.552;13.434;2024-01-30T03:06:21;8.80;;;6.00;;
13588;SDS011;6865;52.552;13.434;2024-01-30T03:08:49;7.83;;;5.33;;
13588;SDS011;6865;52.552;13.434;2024-01-30T03:11:15;10.97;;;5.90;;
13588;SDS011;6865;52.552;13.434;2024-01-30T03:13:42;9.37;;;6.13;;
13588;SDS011;6865;52.552;13.434;2024-01-30T03:16:09;7.83;;;5.90;;
13588;SDS011;6865;52.552;13.434;2024-01-30T03:18:35;8.90;;;6.07;;
13588;SDS011;6865;52.552;13.434;2024-01-30T03:21:02;8.43;;;5.30;;
13588;SDS011;6865;52.552;13.434;2024-01-30T03:23:29;12.37;;;6.33;;
13588;SDS011;6865;52.552;13.434;2024-01-30T03:25:57;8.17;;;5.60;;
13588;SDS011;6865;52.552;13.434;2024-01-30T03:28:24;7.67;;;5.77;;
13588;SDS011;6865;52.552;13.434;2024-01-30T03:30:50;8.70;;;6.00;;
13588;SDS011;6865;52.552;13.434;2024-01-30T03:33:17;11.07;;;5.70;;
13588;SDS011;6865;52.552;13.434;2024-01-30T03:35:44;9.70;;;5.67;;
13588;SDS011;6865;52.552;13.434;2024-01-30T03:38:10;9.10;;;5.53;;
13588;SDS011;6865;52.552;13.434;2024-01-30T03:40:37;8.30;;;5.93;;
13588;SDS011;6865;52.552;13.434;2024-01-30T03:43:03;8.57;;;5.30;;
13588;SDS011;6865;52.552;13.434;2024-01-30T03:45:31;11.67;;;6.10;;
13588;SDS011;6865;52.552;13.434;2024-01-30T03:47:58;9.57;;;5.93;;
13588;SDS011;6865;52.552;13.434;2024-01-30T03:50:25;8.70;;;5.93;;
13588;SDS011;6865;52.552;13.434;2024-01-30T03:52:51;8.47;;;5.80;;
13588;SDS011;6865;52.552;13.434;2024-01-30T03:55:18;10.43;;;6.10;;
13588;SDS011;6865;52.552;13.434;2024-01-30T03:57:45;8.40;;;5.93;;
13588;SDS011;6865;52.552;13.434;2024-01-30T04:00:12;9.43;;;5.90;;
13588;SDS011;6865;52.552;13.434;2024-01-30T04:02:39;8.07;;;5.93;;
13588;SDS011;6865;52.552;13.434;2024-01-30T04:05:05;9.20;;;5.60;;
13588;SDS011;6865;52.552;13.434;2024-01-30T04:07:32;9.37;;;6.13;;
13588;SDS011;6865;52.552;13.434;2024-01-30T04:09:59;9.37;;;6.13;;
13588;SDS011;6865;52.552;13.434;2024-01-30T04:12:26;8.70;;;6.17;;
13588;SDS011;6865;52.552;13.434;2024-01-30T04:14:52;9.67;;;5.70;;
13588;SDS011;6865;52.552;13.434;2024-01-30T04:17:19;10.30;;;6.57;;
13588;SDS011;6865;52.552;13.434;2024-01-30T04:19:46;15.50;;;6.13;;
13588;SDS011;6865;52.552;13.434;2024-01-30T04:22:13;8.63;;;5.63;;
13588;SDS011;6865;52.552;13.434;2024-01-30T04:24:40;9.20;;;6.10;;
13588;SDS011;6865;52.552;13.434;2024-01-30T04:27:07;9.07;;;5.93;;
13588;SDS011;6865;52.552;13.434;2024-01-30T04:29:33;10.83;;;6.00;;
13588;SDS011;6865;52.552;13.434;2024-01-30T04:32:00;10.27;;;6.30;;
13588;SDS011;6865;52.552;13.434;2024-01-30T04:34:27;10.23;;;6.00;;
13588;SDS011;6865;52.552;13.434;2024-01-30T04:36:53;9.07;;;5.80;;
13588;SDS011;6865;52.552;13.434;2024-01-30T04:39:20;9.07;;;5.70;;
13588;SDS011;6865;52.552;13.434;2024-01-30T04:41:47;8.90;;;5.43;;
13588;SDS011;6865;52.552;13.434;2024-01-30T04:44:14;8.50;;;5.77;;
13588;SDS011;6865;52.552;13.434;2024-01-30T04:46:41;9.63;;;5.93;;
13588;SDS011;6865;52.552;13.434;2024-01-30T04:49:07;9.53;;;6.00;;
13588;SDS011;6865;52.552;13.434;2024-01-30T04:51:34;7.67;;;5.30;;
13588;SDS011;6865;52.552;13.434;2024-01-30T04:54:01;10.60;;;6.13;;
13588;SDS011;6865;52.552;13.434;2024-01-30T04:56:28;10.70;;;5.70;;
13588;SDS011;6865;52.552;13.434;2024-01-30T04:58:54;10.57;;;5.87;;
13588;SDS011;6865;52.552;13.434;2024-01-30T05:01:21;11.47;;;5.67;;
13588;SDS011;6865;52.552;13.434;2024-01-30T05:03:48;9.07;;;6.00;;
13588;SDS011;6865;52.552;13.434;2024-01-30T05:06:23;10.40;;;6.13;;
13588;SDS011;6865;52.552;13.434;2024-01-30T05:08:51;10.63;;;5.87;;
13588;SDS011;6865;52.552;13.434;2024-01-30T05:11:18;9.27;;;5.63;;
13588;SDS011;6865;52.552;13.434;2024-01-30T05:13:45;11.10;;;6.13;;
13588;SDS011;6865;52.552;13.434;2024-01-30T05:16:11;10.83;;;6.33;;
13588;SDS011;6865;52.552;13.434;2024-01-30T05:18:38;10.40;;;6.93;;
13588;SDS011;6865;52.552;13.434;2024-01-30T05:21:05;8.53;;;5.90;;
13588;SDS011;6865;52.552;13.434;2024-01-30T05:23:32;9.30;;;6.37;;
13588;SDS011;6865;52.552;13.434;2024-01-30T05:25:59;11.00;;;5.93;;
13588;SDS011;6865;52.552;13.434;2024-01-30T05:28:28;8.80;;;5.57;;
13588;SDS011;6865;52.552;13.434;2024-01-30T05:30:56;9.87;;;6.20;;
13588;SDS011;6865;52.552;13.434;2024-01-30T05:33:23;10.67;;;6.30;;
13588;SDS011;6865;52.552;13.434;2024-01-30T05:35:50;9.63;;;5.73;;
13588;SDS011;6865;52.552;13.434;2024-01-30T05:38:20;8.53;;;5.80;;
13588;SDS011;6865;52.552;13.434;2024-01-30T05:40:47;7.97;;;5.57;;
13588;SDS011;6865;52.552;13.434;2024-01-30T05:43:13;9.07;;;5.80;;
13588;SDS011;6865;52.552;13.434;2024-01-30T05:45:40;8.03;;;5.93;;
13588;SDS011;6865;52.552;13.434;2024-01-30T05:48:07;10.50;;;6.13;;
13588;SDS011;6865;52.552;13.434;2024-01-30T05:50:34;9.67;;;5.80;;
13588;SDS011;6865;52.552;13.434;2024-01-30T05:53:00;10.13;;;5.67;;
13588;SDS011;6865;52.552;13.434;2024-01-30T05:55:27;10.53;;;6.20;;
13588;SDS011;6865;52.552;13.434;2024-01-30T05:57:54;8.73;;;6.17;;
13588;SDS011;6865;52.552;13.434;2024-01-30T06:00:21;9.17;;;6.20;;
13588;SDS011;6865;52.552;13.434;2024-01-30T06:02:48;11.50;;;6.40;;
13588;SDS011;6865;52.552;13.434;2024-01-30T06:05:14;8.80;;;5.47;;
13588;SDS011;6865;52.552;13.434;2024-01-30T06:07:41;11.57;;;6.17;;
13588;SDS011;6865;52.552;13.434;2024-01-30T06:10:08;10.30;;;6.50;;
13588;SDS011;6865;52.552;13.434;2024-01-30T06:12:35;10.80;;;6.27;;
13588;SDS011;6865;52.552;13.434;2024-01-30T06:15:02;9.40;;;6.20;;
13588;SDS011;6865;52.552;13.434;2024-01-30T06:17:29;10.30;;;6.17;;
13588;SDS011;6865;52.552;13.434;2024-01-30T06:19:56;10.07;;;6.13;;
13588;SDS011;6865;52.552;13.434;2024-01-30T06:22:22;8.67;;;6.10;;
13588;SDS011;6865;52.552;13.434;2024-01-30T06:24:49;10.70;;;6.33;;
13588;SDS011;6865;52.552;13.434;2024-01-30T06:27:16;11.60;;;6.57;;
13588;SDS011;6865;52.552;13.434;2024-01-30T06:29:43;16.47;;;8.30;;
13588;SDS011;6865;52.552;13.434;2024-01-30T06:32:10;10.43;;;7.00;;
13588;SDS011;6865;52.552;13.434;2024-01-30T06:34:37;9.23;;;6.43;;
13588;SDS011;6865;52.552;13.434;2024-01-30T06:37:05;10.60;;;6.40;;
13588;SDS011;6865;52.552;13.434;2024-01-30T06:39:32;10.50;;;6.17;;
13588;SDS011;6865;52.552;13.434;2024-01-30T06:41:58;10.30;;;6.33;;
13588;SDS011;6865;52.552;13.434;2024-01-30T06:44:25;14.97;;;6.60;;
13588;SDS011;6865;52.552;13.434;2024-01-30T06:46:53;10.47;;;6.07;;
13588;SDS011;6865;52.552;13.434;2024-01-30T06:49:20;10.10;;;6.20;;
13588;SDS011;6865;52.552;13.434;2024-01-30T06:51:48;13.20;;;7.73;;
13588;SDS011;6865;52.552;13.434;2024-01-30T06:54:15;13.23;;;6.10;;
13588;SDS011;6865;52.552;13.434;2024-01-30T06:56:41;11.43;;;6.13;;
13588;SDS011;6865;52.552;13.434;2024-01-30T06:59:08;10.83;;;6.30;;
13588;SDS011;6865;52.552;13.434;2024-01-30T07:01:35;14.07;;;6.60;;
13588;SDS011;6865;52.552;13.434;2024-01-30T07:04:01;11.27;;;6.27;;
13588;SDS011;6865;52.552;13.434;2024-01-30T07:06:28;9.57;;;6.33;;
13588;SDS011;6865;52.552;13.434;2024-01-30T07:08:55;14.93;;;6.53;;
13588;SDS011;6865;52.552;13.434;2024-01-30T07:11:22;10.83;;;6.70;;
13588;SDS011;6865;52.552;13.434;2024-01-30T07:13:50;21.17;;;7.70;;
13588;SDS011;6865;52.552;13.434;2024-01-30T07:16:17;12.37;;;6.80;;
13588;SDS011;6865;52.552;13.434;2024-01-30T07:18:44;11.80;;;6.30;;
13588;SDS011;6865;52.552;13.434;2024-01-30T07:21:12;11.77;;;6.40;;
13588;SDS011;6865;52.552;13.434;2024-01-30T07:23:39;9.40;;;6.50;;
13588;SDS011;6865;52.552;13.434;2024-01-30T07:26:05;11.27;;;6.80;;
13588;SDS011;6865;52.552;13.434;2024-01-30T07:28:35;11.27;;;6.60;;
13588;SDS011;6865;52.552;13.434;2024-01-30T07:31:01;13.07;;;6.57;;
13588;SDS011;6865;52.552;13.434;2024-01-30T07:33:29;10.20;;;6.63;;
13588;SDS011;6865;52.552;13.434;2024-01-30T07:35:56;11.00;;;6.73;;
13588;SDS011;6865;52.552;13.434;2024-01-30T07:38:24;15.27;;;8.27;;
13588;SDS011;6865;52.552;13.434;2024-01-30T07:40:51;13.20;;;7.47;;
13588;SDS011;6865;52.552;13.434;2024-01-30T07:43:18;14.30;;;7.87;;
13588;SDS011;6865;52.552;13.434;2024-01-30T07:45:46;10.30;;;7.17;;
13588;SDS011;6865;52.552;13.434;2024-01-30T07:48:13;10.80;;;6.83;;
13588;SDS011;6865;52.552;13.434;2024-01-30T07:50:40;13.57;;;7.57;;
13588;SDS011;6865;52.552;13.434;2024-01-30T07:53:07;10.50;;;7.13;;
13588;SDS011;6865;52.552;13.434;2024-01-30T07:55:34;14.03;;;7.17;;
13588;SDS011;6865;52.552;13.434;2024-01-30T07:58:01;11.40;;;6.73;;
13588;SDS011;6865;52.552;13.434;2024-01-30T08:00:28;11.03;;;7.10;;
13588;SDS011;6865;52.552;13.434;2024-01-30T08:02:55;12.90;;;6.63;;
13588;SDS011;6865;52.552;13.434;2024-01-30T08:05:23;12.57;;;7.27;;
13588;SDS011;6865;52.552;13.434;2024-01-30T08:07:50;13.13;;;6.90;;
13588;SDS011;6865;52.552;13.434;2024-01-30T08:10:17;12.70;;;6.83;;
13588;SDS011;6865;52.552;13.434;2024-01-30T08:12:45;11.60;;;6.63;;
13588;SDS011;6865;52.552;13.434;2024-01-30T08:15:12;14.13;;;6.97;;
13588;SDS011;6865;52.552;13.434;2024-01-30T08:17:39;15.87;;;6.90;;
13588;SDS011;6865;52.552;13.434;2024-01-30T08:20:06;18.43;;;7.43;;
13588;SDS011;6865;52.552;13.434;2024-01-30T08:22:35;10.67;;;6.70;;
13588;SDS011;6865;52.552;13.434;2024-01-30T08:25:01;9.47;;;7.00;;
13588;SDS011;6865;52.552;13.434;2024-01-30T08:27:28;10.77;;;6.80;;
13588;SDS011;6865;52.552;13.434;2024-01-30T08:29:55;13.07;;;7.33;;
13588;SDS011;6865;52.552;13.434;2024-01-30T08:32:22;14.63;;;7.00;;
13588;SDS011;6865;52.552;13.434;2024-01-30T08:34:50;12.77;;;7.30;;
13588;SDS011;6865;52.552;13.434;2024-01-30T08:37:17;9.90;;;6.50;;
13588;SDS011;6865;52.552;13.434;2024-01-30T08:39:43;15.63;;;7.83;;
13588;SDS011;6865;52.552;13.434;2024-01-30T08:42:10;10.87;;;7.40;;
13588;SDS011;6865;52.552;13.434;2024-01-30T08:44:37;12.37;;;7.57;;
13588;SDS011;6865;52.552;13.434;2024-01-30T08:47:04;12.27;;;6.97;;
13588;SDS011;6865;52.552;13.434;2024-01-30T08:49:32;13.83;;;7.23;;
13588;SDS011;6865;52.552;13.434;2024-01-30T08:51:58;10.23;;;7.10;;
13588;SDS011;6865;52.552;13.434;2024-01-30T08:54:25;10.83;;;7.40;;
13588;SDS011;6865;52.552;13.434;2024-01-30T08:56:52;13.73;;;7.20;;
13588;SDS011;6865;52.552;13.434;2024-01-30T08:59:19;16.20;;;7.67;;
13588;SDS011;6865;52.552;13.434;2024-01-30T09:01:46;12.57;;;7.83;;
13588;SDS011;6865;52.552;13.434;2024-01-30T09:04:28;11.53;;;7.27;;
13588;SDS011;6865;52.552;13.434;2024-01-30T09:06:55;13.20;;;7.37;;
13588;SDS011;6865;52.552;13.434;2024-01-30T09:09:22;12.10;;;7.50;;
13588;SDS011;6865;52.552;13.434;2024-01-30T09:11:49;13.43;;;7.90;;
13588;SDS011;6865;52.552;13.434;2024-01-30T09:14:15;13.93;;;7.63;;
13588;SDS011;6865;52.552;13.434;2024-01-30T09:16:42;12.30;;;6.57;;
13588;SDS011;6865;52.552;13.434;2024-01-30T09:19:09;13.33;;;7.33;;
13588;SDS011;6865;52.552;13.434;2024-01-30T09:21:36;12.73;;;7.30;;
13588;SDS011;6865;52.552;13.434;2024-01-30T09:24:03;15.63;;;7.47;;
13588;SDS011;6865;52.552;13.434;2024-01-30T09:26:30;11.03;;;7.33;;
13588;SDS011;6865;52.552;13.434;2024-01-30T09:28:57;15.77;;;6.73;;
13588;SDS011;6865;52.552;13.434;2024-01-30T09:31:24;16.40;;;8.47;;
13588;SDS011;6865;52.552;13.434;2024-01-30T09:33:51;12.90;;;7.47;;
13588;SDS011;6865;52.552;13.434;2024-01-30T09:36:20;16.67;;;7.27;;
13588;SDS011;6865;52.552;13.434;2024-01-30T09:38:47;11.50;;;7.00;;
13588;SDS011;6865;52.552;13.434;2024-01-30T09:41:14;12.53;;;6.60;;
13588;SDS011;6865;52.552;13.434;2024-01-30T09:43:42;13.57;;;7.27;;
13588;SDS011;6865;52.552;13.434;2024-01-30T09:46:15;12.30;;;7.43;;
13588;SDS011;6865;52.552;13.434;2024-01-30T09:48:46;15.90;;;7.97;;
13588;SDS011;6865;52.552;13.434;2024-01-30T09:51:14;13.30;;;7.43;;
13588;SDS011;6865;52.552;13.434;2024-01-30T09:53:42;12.60;;;7.07;;
13588;SDS011;6865;52.552;13.434;2024-01-30T09:56:12;12.43;;;6.87;;
13588;SDS011;6865;52.552;13.434;2024-01-30T09:58:40;11.60;;;6.53;;
13588;SDS011;6865;52.552;13.434;2024-01-30T10:01:06;13.60;;;7.33;;
13588;SDS011;6865;52.552;13.434;2024-01-30T10:03:33;11.90;;;6.67;;
13588;SDS011;6865;52.552;13.434;2024-01-30T10:06:00;10.60;;;6.87;;
13588;SDS011;6865;52.552;13.434;2024-01-30T10:08:27;15.90;;;7.23;;
13588;SDS011;6865;52.552;13.434;2024-01-30T10:10:56;9.33;;;6.30;;
13588;SDS011;6865;52.552;13.434;2024-01-30T10:13:24;9.33;;;6.13;;
13588;SDS011;6865;52.552;13.434;2024-01-30T10:15:52;13.07;;;6.33;;
13588;SDS011;6865;52.552;13.434;2024-01-30T10:18:19;10.07;;;6.00;;
13588;SDS011;6865;52.552;13.434;2024-01-30T10:20:46;10.47;;;6.00;;
13588;SDS011;6865;52.552;13.434;2024-01-30T10:23:13;13.70;;;6.37;;
13588;SDS011;6865;52.552;13.434;2024-01-30T10:25:39;10.87;;;6.60;;
13588;SDS011;6865;52.552;13.434;2024-01-30T10:28:06;11.97;;;6.00;;
13588;SDS011;6865;52.552;13.434;2024-01-30T10:30:33;12.80;;;6.40;;
13588;SDS011;6865;52.552;13.434;2024-01-30T10:33:00;10.70;;;5.87;;
13588;SDS011;6865;52.552;13.434;2024-01-30T10:35:27;9.83;;;6.70;;
13588;SDS011;6865;52.552;13.434;2024-01-30T10:37:54;12.20;;;6.00;;
13588;SDS011;6865;52.552;13.434;2024-01-30T10:40:27;9.70;;;6.07;;
13588;SDS011;6865;52.552;13.434;2024-01-30T10:42:55;8.70;;;5.50;;
13588;SDS011;6865;52.552;13.434;2024-01-30T10:45:23;8.80;;;6.00;;
13588;SDS011;6865;52.552;13.434;2024-01-30T10:47:54;7.97;;;5.17;;
13588;SDS011;6865;52.552;13.434;2024-01-30T10:50:24;11.60;;;5.70;;
13588;SDS011;6865;52.552;13.434;2024-01-30T10:52:51;11.23;;;5.60;;
13588;SDS011;6865;52.552;13.434;2024-01-30T10:55:19;10.17;;;5.30;;
13588;SDS011;6865;52.552;13.434;2024-01-30T10:57:49;8.73;;;5.43;;
13588;SDS011;6865;52.552;13.434;2024-01-30T11:00:17;9.37;;;6.50;;
13588;SDS011;6865;52.552;13.434;2024-01-30T11:02:46;10.57;;;5.37;;
13588;SDS011;6865;52.552;13.434;2024-01-30T11:05:13;10.70;;;5.10;;
13588;SDS011;6865;52.552;13.434;2024-01-30T11:07:42;7.13;;;5.20;;
13588;SDS011;6865;52.552;13.434;2024-01-30T11:10:09;8.90;;;5.23;;
13588;SDS011;6865;52.552;13.434;2024-01-30T11:12:41;7.90;;;5.27;;
13588;SDS011;6865;52.552;13.434;2024-01-30T11:15:11;8.43;;;5.30;;
13588;SDS011;6865;52.552;13.434;2024-01-30T11:17:50;8.77;;;5.07;;
13588;SDS011;6865;52.552;13.434;2024-01-30T11:20:22;10.47;;;5.27;;
13588;SDS011;6865;52.552;13.434;2024-01-30T11:22:54;8.53;;;5.33;;
13588;SDS011;6865;52.552;13.434;2024-01-30T11:25:22;8.13;;;5.50;;
13588;SDS011;6865;52.552;13.434;2024-01-30T11:27:51;7.40;;;5.23;;
13588;SDS011;6865;52.552;13.434;2024-01-30T11:30:26;10.73;;;5.37;;
13588;SDS011;6865;52.552;13.434;2024-01-30T11:35:48;8.97;;;5.97;;
13588;SDS011;6865;52.552;13.434;2024-01-30T11:38:15;13.43;;;5.57;;
13588;SDS011;6865;52.552;13.434;2024-01-30T11:40:42;11.50;;;5.90;;
13588;SDS011;6865;52.552;13.434;2024-01-30T11:43:10;9.83;;;6.07;;
13588;SDS011;6865;52.552;13.434;2024-01-30T11:45:37;11.10;;;5.73;;
13588;SDS011;6865;52.552;13.434;2024-01-30T11:48:05;8.73;;;5.73;;
13588;SDS011;6865;52.552;13.434;2024-01-30T11:50:33;10.77;;;6.10;;
13588;SDS011;6865;52.552;13.434;2024-01-30T11:53:01;11.77;;;6.23;;
13588;SDS011;6865;52.552;13.434;2024-01-30T11:55:29;8.33;;;5.73;;
13588;SDS011;6865;52.552;13.434;2024-01-30T11:58:00;8.53;;;6.20;;
13588;SDS011;6865;52.552;13.434;2024-01-30T12:00:27;9.30;;;6.07;;
13588;SDS011;6865;52.552;13.434;2024-01-30T12:02:55;8.67;;;5.77;;
13588;SDS011;6865;52.552;13.434;2024-01-30T12:05:23;12.53;;;5.90;;
13588;SDS011;6865;52.552;13.434;2024-01-30T12:07:50;12.87;;;6.10;;
13588;SDS011;6865;52.552;13.434;2024-01-30T12:10:17;8.30;;;5.90;;
13588;SDS011;6865;52.552;13.434;2024-01-30T12:12:51;10.97;;;6.00;;
13588;SDS011;6865;52.552;13.434;2024-01-30T12:15:18;13.83;;;6.47;;
13588;SDS011;6865;52.552;13.434;2024-01-30T12:17:48;10.07;;;6.03;;
13588;SDS011;6865;52.552;13.434;2024-01-30T12:20:17;13.57;;;5.90;;
13588;SDS011;6865;52.552;13.434;2024-01-30T12:22:49;12.90;;;6.27;;
13588;SDS011;6865;52.552;13.434;2024-01-30T12:25:17;9.40;;;5.30;;
13588;SDS011;6865;52.552;13.434;2024-01-30T12:27:45;9.00;;;6.03;;
13588;SDS011;6865;52.552;13.434;2024-01-30T12:30:17;10.10;;;6.60;;
13588;SDS011;6865;52.552;13.434;2024-01-30T12:32:47;9.43;;;6.07;;
13588;SDS011;6865;52.552;13.434;2024-01-30T12:35:17;9.47;;;5.77;;
13588;SDS011;6865;52.552;13.434;2024-01-30T12:37:45;15.77;;;6.43;;
13588;SDS011;6865;52.552;13.434;2024-01-30T12:40:16;9.93;;;6.00;;
13588;SDS011;6865;52.552;13.434;2024-01-30T12:42:43;10.47;;;6.00;;
13588;SDS011;6865;52.552;13.434;2024-01-30T12:45:15;8.13;;;5.87;;
13588;SDS011;6865;52.552;13.434;2024-01-30T12:47:42;12.67;;;6.50;;
13588;SDS011;6865;52.552;13.434;2024-01-30T12:50:09;10.97;;;6.47;;
13588;SDS011;6865;52.552;13.434;2024-01-30T12:52:36;9.20;;;6.13;;
13588;SDS011;6865;52.552;13.434;2024-01-30T12:55:03;10.37;;;6.57;;
13588;SDS011;6865;52.552;13.434;2024-01-30T12:57:30;11.43;;;6.87;;
13588;SDS011;6865;52.552;13.434;2024-01-30T12:59:57;10.67;;;6.80;;
13588;SDS011;6865;52.552;13.434;2024-01-30T13:02:24;12.83;;;6.23;;
13588;SDS011;6865;52.552;13.434;2024-01-30T13:04:52;13.50;;;6.37;;
13588;SDS011;6865;52.552;13.434;2024-01-30T13:07:19;11.43;;;6.50;;
13588;SDS011;6865;52.552;13.434;2024-01-30T13:09:47;12.37;;;6.30;;
13588;SDS011;6865;52.552;13.434;2024-01-30T13:12:16;9.77;;;6.13;;
13588;SDS011;6865;52.552;13.434;2024-01-30T13:14:43;12.23;;;6.60;;
13588;SDS011;6865;52.552;13.434;2024-01-30T13:17:10;11.73;;;7.03;;
13588;SDS011;6865;52.552;13.434;2024-01-30T13:19:37;13.03;;;7.07;;
13588;SDS011;6865;52.552;13.434;2024-01-30T13:22:04;11.37;;;7.00;;
13588;SDS011;6865;52.552;13.434;2024-01-30T13:24:31;11.37;;;6.53;;
13588;SDS011;6865;52.552;13.434;2024-01-30T13:26:57;12.83;;;6.83;;
13588;SDS011;6865;52.552;13.434;2024-01-30T13:29:24;14.00;;;6.63;;
13588;SDS011;6865;52.552;13.434;2024-01-30T13:31:51;10.90;;;6.57;;
13588;SDS011;6865;52.552;13.434;2024-01-30T13:34:18;10.70;;;6.40;;
13588;SDS011;6865;52.552;13.434;2024-01-30T13:36:44;15.43;;;6.77;;
13588;SDS011;6865;52.552;13.434;2024-01-30T13:39:11;11.37;;;6.93;;
13588;SDS011;6865;52.552;13.434;2024-01-30T13:41:39;14.87;;;7.97;;
13588;SDS011;6865;52.552;13.434;2024-01-30T13:44:07;12.70;;;6.33;;
13588;SDS011;6865;52.552;13.434;2024-01-30T13:46:35;13.27;;;7.27;;
13588;SDS011;6865;52.552;13.434;2024-01-30T13:49:02;15.03;;;6.90;;
13588;SDS011;6865;52.552;13.434;2024-01-30T13:51:29;7.90;;;5.90;;
13588;SDS011;6865;52.552;13.434;2024-01-30T13:53:56;10.70;;;6.37;;
13588;SDS011;6865;52.552;13.434;2024-01-30T13:56:23;9.73;;;6.30;;
13588;SDS011;6865;52.552;13.434;2024-01-30T13:58:50;11.13;;;6.07;;
13588;SDS011;6865;52.552;13.434;2024-01-30T14:01:16;10.23;;;6.67;;
13588;SDS011;6865;52.552;13.434;2024-01-30T14:03:44;12.97;;;6.87;;
13588;SDS011;6865;52.552;13.434;2024-01-30T14:06:11;11.00;;;6.63;;
13588;SDS011;6865;52.552;13.434;2024-01-30T14:08:38;8.50;;;5.83;;
13588;SDS011;6865;52.552;13.434;2024-01-30T14:11:05;10.63;;;6.10;;
13588;SDS011;6865;52.552;13.434;2024-01-30T14:13:32;9.60;;;5.93;;
13588;SDS011;6865;52.552;13.434;2024-01-30T14:15:59;10.43;;;6.43;;
13588;SDS011;6865;52.552;13.434;2024-01-30T14:18:26;9.80;;;5.70;;
13588;SDS011;6865;52.552;13.434;2024-01-30T14:20:53;8.40;;;6.13;;
13588;SDS011;6865;52.552;13.434;2024-01-30T14:23:20;10.93;;;6.50;;
13588;SDS011;6865;52.552;13.434;2024-01-30T14:25:47;8.60;;;6.00;;
13588;SDS011;6865;52.552;13.434;2024-01-30T14:28:15;9.03;;;5.90;;
13588;SDS011;6865;52.552;13.434;2024-01-30T14:30:42;12.47;;;6.40;;
13588;SDS011;6865;52.552;13.434;2024-01-30T14:33:09;12.60;;;6.57;;
13588;SDS011;6865;52.552;13.434;2024-01-30T14:35:35;8.60;;;5.60;;
13588;SDS011;6865;52.552;13.434;2024-01-30T14:38:04;12.30;;;5.93;;
13588;SDS011;6865;52.552;13.434;2024-01-30T14:40:33;9.17;;;6.23;;
13588;SDS011;6865;52.552;13.434;2024-01-30T14:43:00;8.10;;;6.20;;
13588;SDS011;6865;52.552;13.434;2024-01-30T14:45:27;8.60;;;6.00;;